createdAt,value
2019-03-19T00:00:16.989Z,18.30
2019-03-19T00:05:10.148Z,18.30
2019-03-19T00:10:06.836Z,18.30
2019-03-19T00:12:33.247Z,18.30
2019-03-19T00:14:59.557Z,18.30
2019-03-19T00:17:25.649Z,18.30
2019-03-19T00:19:51.705Z,18.20
2019-03-19T00:24:44.459Z,18.20
2019-03-19T00:27:10.513Z,18.20
2019-03-19T00:29:36.596Z,18.20
2019-03-19T00:34:29.408Z,18.10
2019-03-19T00:36:55.493Z,18.10
2019-03-19T00:39:21.542Z,18.10
2019-03-19T00:41:47.952Z,18.10
2019-03-19T00:44:14.385Z,18.10
2019-03-19T00:46:40.439Z,18.20
2019-03-19T00:49:06.980Z,18.10
2019-03-19T00:51:33.616Z,18.10
2019-03-19T00:53:59.664Z,18.10
2019-03-19T00:58:52.501Z,18.10
2019-03-19T01:01:18.796Z,18.10
2019-03-19T01:03:45.129Z,18.10
2019-03-19T01:06:11.455Z,18.10
2019-03-19T01:08:37.499Z,18.00
2019-03-19T01:11:03.582Z,18.10
2019-03-19T01:13:29.623Z,18.00
2019-03-19T01:15:55.951Z,18.00
2019-03-19T01:18:21.995Z,18.00
2019-03-19T01:20:48.088Z,18.00
2019-03-19T01:23:14.437Z,18.00
2019-03-19T01:25:54.481Z,18.00
2019-03-19T01:28:08.459Z,18.00
2019-03-19T01:30:34.501Z,18.00
2019-03-19T01:33:00.587Z,17.90
2019-03-19T01:35:26.627Z,17.90
2019-03-19T01:37:52.708Z,17.90
2019-03-19T01:40:18.766Z,17.90
2019-03-19T01:50:14.277Z,17.90
2019-03-19T01:52:40.595Z,17.90
2019-03-19T01:55:10.135Z,17.90
2019-03-19T01:57:36.180Z,17.90
2019-03-19T02:02:30.869Z,17.80
2019-03-19T02:07:23.328Z,17.80
2019-03-19T02:09:49.444Z,17.80
2019-03-19T02:12:15.776Z,17.80
2019-03-19T02:14:42.455Z,17.80
2019-03-19T02:17:08.500Z,17.70
2019-03-19T02:19:34.579Z,17.80
2019-03-19T02:22:00.888Z,17.80
2019-03-19T02:24:28.033Z,17.60
2019-03-19T02:31:47.861Z,17.70
2019-03-19T02:34:14.197Z,17.70
2019-03-19T02:36:40.331Z,17.70
2019-03-19T02:39:07.244Z,17.70
2019-03-19T02:41:33.329Z,17.70
2019-03-19T02:43:59.712Z,17.60
2019-03-19T02:46:26.031Z,17.60
2019-03-19T02:51:18.519Z,17.60
2019-03-19T02:53:44.555Z,17.60
2019-03-19T02:56:10.942Z,17.60
2019-03-19T02:58:37.285Z,17.60
2019-03-19T03:03:30.061Z,17.60
2019-03-19T03:10:49.536Z,17.60
2019-03-19T03:13:15.618Z,17.60
2019-03-19T03:15:41.665Z,17.60
2019-03-19T03:18:08.009Z,17.50
2019-03-19T03:20:34.055Z,17.50
2019-03-19T03:23:00.360Z,17.50
2019-03-19T03:25:26.441Z,17.50
2019-03-19T03:27:52.493Z,17.50
2019-03-19T03:30:23.530Z,17.50
2019-03-19T03:32:50.566Z,17.50
2019-03-19T03:35:17.231Z,17.50
2019-03-19T03:37:44.487Z,17.50
2019-03-19T03:40:14.089Z,17.40
2019-03-19T03:42:43.017Z,17.50
2019-03-19T03:45:14.815Z,17.40
2019-03-19T03:50:12.736Z,17.40
2019-03-19T03:52:38.781Z,17.40
2019-03-19T03:55:16.945Z,17.40
2019-03-19T03:57:43.437Z,17.30
2019-03-19T04:05:07.762Z,17.40
2019-03-19T04:07:33.840Z,17.40
2019-03-19T04:09:59.893Z,17.40
2019-03-19T04:14:52.395Z,17.30
2019-03-19T04:17:18.431Z,17.30
2019-03-19T04:19:44.885Z,17.30
2019-03-19T04:22:10.973Z,17.30
2019-03-19T04:24:37.017Z,17.30
2019-03-19T04:31:58.065Z,17.20
2019-03-19T04:34:24.108Z,17.30
2019-03-19T04:39:16.892Z,17.30
2019-03-19T04:41:43.003Z,17.30
2019-03-19T04:44:10.108Z,17.20
2019-03-19T04:46:36.433Z,17.20
2019-03-19T04:49:02.586Z,17.20
2019-03-19T04:51:28.667Z,17.30
2019-03-19T04:58:47.575Z,17.20
2019-03-19T05:01:13.906Z,17.30
2019-03-19T05:03:39.979Z,17.20
2019-03-19T05:10:59.173Z,17.20
2019-03-19T05:13:25.233Z,17.20
2019-03-19T05:15:51.408Z,17.20
2019-03-19T05:18:17.454Z,17.20
2019-03-19T05:20:43.827Z,17.20
2019-03-19T05:23:09.909Z,17.20
2019-03-19T05:25:36.277Z,17.20
2019-03-19T05:28:02.389Z,17.20
2019-03-19T05:30:28.741Z,17.20
2019-03-19T05:32:54.833Z,17.20
2019-03-19T05:35:21.193Z,17.20
2019-03-19T05:37:47.511Z,17.20
2019-03-19T05:40:15.794Z,17.10
2019-03-19T05:45:14.900Z,17.20
2019-03-19T05:47:42.275Z,17.20
2019-03-19T05:50:10.480Z,17.10
2019-03-19T05:52:36.516Z,17.20
2019-03-19T05:55:05.491Z,17.20
2019-03-19T05:59:57.949Z,17.10
2019-03-19T06:04:50.479Z,17.10
2019-03-19T06:07:16.520Z,17.20
2019-03-19T06:09:42.642Z,17.10
2019-03-19T06:12:08.840Z,17.10
2019-03-19T06:14:35.184Z,17.10
2019-03-19T06:17:01.228Z,17.10
2019-03-19T06:19:27.327Z,17.10
2019-03-19T06:24:21.991Z,17.10
2019-03-19T06:26:48.079Z,17.10
2019-03-19T06:29:14.131Z,17.10
2019-03-19T06:31:40.175Z,17.10
2019-03-19T06:34:06.522Z,17.20
2019-03-19T06:38:59.008Z,17.10
2019-03-19T06:41:25.097Z,17.20
2019-03-19T06:46:18.495Z,17.20
2019-03-19T06:48:44.583Z,17.10
2019-03-19T06:53:37.449Z,17.10
2019-03-19T06:56:04.643Z,17.20
2019-03-19T06:58:31.147Z,17.20
2019-03-19T07:00:57.189Z,17.20
2019-03-19T07:03:23.259Z,17.20
2019-03-19T07:05:49.635Z,17.10
2019-03-19T07:08:15.783Z,17.10
2019-03-19T07:10:41.935Z,17.20
2019-03-19T07:13:08.310Z,17.20
2019-03-19T07:15:34.394Z,17.20
2019-03-19T07:18:00.458Z,17.10
2019-03-19T07:20:28.405Z,17.20
2019-03-19T07:25:21.274Z,17.20
2019-03-19T07:27:47.320Z,17.20
2019-03-19T07:30:22.332Z,17.20
2019-03-19T07:32:48.772Z,17.20
2019-03-19T07:35:15.024Z,17.20
2019-03-19T07:40:12.228Z,17.20
2019-03-19T07:42:38.354Z,17.20
2019-03-19T07:45:26.266Z,17.20
2019-03-19T07:50:20.510Z,17.20
2019-03-19T07:52:46.568Z,17.20
2019-03-19T07:55:12.646Z,17.20
2019-03-19T07:57:38.895Z,17.20
2019-03-19T08:02:33.293Z,17.20
2019-03-19T08:04:59.344Z,17.30
2019-03-19T08:12:18.621Z,17.30
2019-03-19T08:14:44.655Z,17.30
2019-03-19T08:19:37.514Z,17.30
2019-03-19T08:29:23.748Z,17.40
2019-03-19T08:31:49.791Z,17.40
2019-03-19T08:34:16.204Z,17.40
2019-03-19T08:36:42.836Z,17.50
2019-03-19T08:39:09.196Z,17.50
2019-03-19T08:41:35.255Z,17.60
2019-03-19T08:44:01.319Z,17.60
2019-03-19T08:46:27.484Z,17.60
2019-03-19T08:48:53.904Z,17.60
2019-03-19T08:51:19.958Z,17.60
2019-03-19T08:53:46.015Z,17.60
2019-03-19T08:56:12.105Z,17.60
2019-03-19T09:01:04.834Z,17.70
2019-03-19T09:05:57.676Z,17.70
2019-03-19T09:13:16.594Z,17.70
2019-03-19T09:15:42.637Z,17.80
2019-03-19T09:18:09.013Z,17.80
2019-03-19T09:20:35.486Z,17.80
2019-03-19T09:23:01.532Z,17.80
2019-03-19T09:30:23.433Z,17.90
2019-03-19T09:32:49.513Z,17.90
2019-03-19T09:35:15.559Z,17.90
2019-03-19T09:37:44.863Z,17.90
2019-03-19T09:42:39.684Z,17.90
2019-03-19T09:45:07.979Z,17.90
2019-03-19T09:50:01.545Z,18.00
2019-03-19T09:52:27.688Z,18.00
2019-03-19T09:54:53.734Z,18.10
2019-03-19T09:57:19.824Z,18.10
2019-03-19T09:59:45.872Z,18.10
2019-03-19T10:02:11.912Z,18.10
2019-03-19T10:04:37.993Z,18.20
2019-03-19T10:07:06.344Z,18.10
2019-03-19T10:09:32.287Z,18.20
2019-03-19T10:11:58.716Z,18.20
2019-03-19T10:14:24.759Z,18.20
2019-03-19T10:19:17.248Z,18.20
2019-03-19T10:26:36.454Z,18.30
2019-03-19T10:29:02.500Z,18.30
2019-03-19T10:31:28.936Z,18.40
2019-03-19T10:33:54.985Z,18.50
2019-03-19T10:36:21.291Z,18.50
2019-03-19T10:38:47.368Z,18.60
2019-03-19T10:41:13.752Z,18.50
2019-03-19T10:43:40.082Z,18.60
2019-03-19T10:46:06.127Z,18.60
2019-03-19T10:48:32.235Z,18.50
2019-03-19T10:50:58.562Z,18.60
2019-03-19T10:53:24.635Z,18.60
2019-03-19T10:55:51.013Z,18.60
2019-03-19T11:00:43.784Z,18.70
2019-03-19T11:05:36.568Z,18.70
2019-03-19T11:08:03.243Z,18.80
2019-03-19T11:12:56.061Z,18.70
2019-03-19T11:15:26.578Z,18.70
2019-03-19T11:17:52.636Z,18.70
2019-03-19T11:20:20.517Z,18.70
2019-03-19T11:22:47.980Z,18.70
2019-03-19T11:27:42.864Z,18.70
2019-03-19T11:32:40.293Z,18.70
2019-03-19T11:35:09.808Z,18.80
2019-03-19T11:37:36.128Z,18.80
2019-03-19T11:40:05.416Z,18.80
2019-03-19T11:42:31.460Z,18.80
2019-03-19T11:44:57.886Z,18.80
2019-03-19T11:47:24.324Z,18.80
2019-03-19T11:49:50.373Z,18.80
2019-03-19T11:52:16.460Z,18.80
2019-03-19T11:54:42.793Z,18.80
2019-03-19T11:59:35.557Z,18.70
2019-03-19T12:02:01.609Z,18.80
2019-03-19T12:04:27.651Z,18.80
2019-03-19T12:06:53.736Z,18.70
2019-03-19T12:09:20.156Z,18.70
2019-03-19T12:11:46.492Z,18.70
2019-03-19T12:14:12.568Z,18.80
2019-03-19T12:16:38.616Z,18.70
2019-03-19T12:19:04.701Z,18.80
2019-03-19T12:21:30.742Z,18.70
2019-03-19T12:23:56.783Z,18.70
2019-03-19T12:26:23.649Z,18.80
2019-03-19T12:28:49.948Z,18.70
2019-03-19T12:31:16.003Z,18.80
2019-03-19T12:33:42.332Z,18.80
2019-03-19T12:38:35.116Z,18.80
2019-03-19T12:41:01.196Z,18.80
2019-03-19T12:43:27.568Z,18.90
2019-03-19T12:45:53.646Z,18.90
2019-03-19T12:48:20.103Z,18.90
2019-03-19T12:50:46.153Z,19.00
2019-03-19T12:55:38.669Z,19.00
2019-03-19T12:58:05.415Z,19.00
2019-03-19T13:03:00.153Z,19.10
2019-03-19T13:05:26.200Z,19.10
2019-03-19T13:07:52.269Z,19.10
2019-03-19T13:10:21.059Z,19.10
2019-03-19T13:12:47.144Z,19.10
2019-03-19T13:17:45.898Z,19.10
2019-03-19T13:22:39.796Z,19.10
2019-03-19T13:25:11.679Z,19.10
2019-03-19T13:27:37.527Z,19.10
2019-03-19T13:30:10.635Z,19.00
2019-03-19T13:32:36.728Z,19.00
2019-03-19T13:35:05.764Z,19.00
2019-03-19T13:37:31.807Z,19.00
2019-03-19T13:39:57.895Z,19.00
2019-03-19T13:42:23.940Z,19.00
2019-03-19T13:44:50.016Z,19.00
2019-03-19T13:47:16.072Z,18.90
2019-03-19T13:49:43.434Z,18.90
2019-03-19T13:52:09.840Z,19.00
2019-03-19T13:54:35.887Z,18.90
2019-03-19T13:57:01.970Z,18.90
2019-03-19T13:59:28.448Z,18.90
2019-03-19T14:01:54.783Z,18.90
2019-03-19T14:04:21.194Z,18.90
2019-03-19T14:06:47.492Z,18.90
2019-03-19T14:09:13.703Z,18.90
2019-03-19T14:14:06.532Z,18.90
2019-03-19T14:16:32.867Z,18.90
2019-03-19T14:18:58.908Z,18.80
2019-03-19T14:21:25.320Z,18.90
2019-03-19T14:23:51.413Z,18.80
2019-03-19T14:28:43.917Z,18.80
2019-03-19T14:31:10.229Z,18.80
2019-03-19T14:33:36.277Z,18.80
2019-03-19T14:36:02.676Z,18.80
2019-03-19T14:40:55.507Z,18.80
2019-03-19T14:43:21.801Z,18.80
2019-03-19T14:48:15.040Z,18.80
2019-03-19T14:50:41.143Z,18.80
2019-03-19T14:55:34.001Z,18.80
2019-03-19T14:58:00.050Z,18.80
2019-03-19T15:00:26.160Z,18.80
2019-03-19T15:02:52.212Z,18.80
2019-03-19T15:05:19.144Z,18.80
2019-03-19T15:07:45.575Z,18.70
2019-03-19T15:10:17.150Z,18.80
2019-03-19T15:12:44.688Z,18.80
2019-03-19T15:15:16.860Z,18.70
2019-03-19T15:17:43.501Z,18.80
2019-03-19T15:22:52.287Z,18.70
2019-03-19T15:27:44.747Z,18.80
2019-03-19T15:30:16.878Z,18.80
2019-03-19T15:32:44.719Z,18.70
2019-03-19T15:35:11.048Z,18.70
2019-03-19T15:40:08.525Z,18.80
2019-03-19T15:42:34.886Z,18.80
2019-03-19T15:45:01.289Z,18.80
2019-03-19T15:47:27.716Z,18.80
2019-03-19T15:49:54.153Z,18.80
2019-03-19T15:52:20.589Z,18.90
2019-03-19T15:54:46.688Z,18.90
2019-03-19T15:57:12.796Z,18.90
2019-03-19T15:59:38.844Z,18.90
2019-03-19T16:02:04.956Z,18.90
2019-03-19T16:04:31.001Z,18.90
2019-03-19T16:06:57.108Z,18.90
2019-03-19T16:09:23.155Z,18.90
2019-03-19T16:11:49.210Z,18.90
2019-03-19T16:14:15.317Z,18.90
2019-03-19T16:16:41.370Z,18.90
2019-03-19T16:21:33.889Z,18.90
2019-03-19T16:24:00.313Z,18.90
2019-03-19T16:31:19.252Z,18.80
2019-03-19T16:33:45.360Z,18.80
2019-03-19T16:36:11.748Z,18.80
2019-03-19T16:38:37.795Z,18.80
2019-03-19T16:41:03.909Z,18.80
2019-03-19T16:43:30.237Z,18.70
2019-03-19T16:45:56.280Z,18.70
2019-03-19T16:48:22.394Z,18.70
2019-03-19T16:50:48.709Z,18.70
2019-03-19T16:53:14.889Z,18.70
2019-03-19T16:55:41.269Z,18.70
2019-03-19T17:05:26.972Z,18.60
2019-03-19T17:15:15.743Z,18.60
2019-03-19T17:17:41.996Z,18.60
2019-03-19T17:20:11.945Z,18.60
2019-03-19T17:22:37.994Z,18.50
2019-03-19T17:27:32.764Z,18.50
2019-03-19T17:29:58.812Z,18.50
2019-03-19T17:32:25.121Z,18.60
2019-03-19T17:34:51.241Z,18.50
2019-03-19T17:37:17.279Z,18.60
2019-03-19T17:39:43.396Z,18.50
2019-03-19T17:42:09.721Z,18.50
2019-03-19T17:44:35.805Z,18.50
2019-03-19T17:47:01.921Z,18.60
2019-03-19T17:49:28.409Z,18.60
2019-03-19T17:51:54.856Z,18.50
2019-03-19T17:54:21.179Z,18.50
2019-03-19T17:56:47.214Z,18.50
2019-03-19T17:59:13.619Z,18.50
2019-03-19T18:02:23.601Z,18.60
2019-03-19T18:04:41.404Z,18.70
2019-03-19T18:09:33.868Z,18.70
2019-03-19T18:11:59.988Z,18.90
2019-03-19T18:14:26.040Z,19.10
2019-03-19T18:16:52.143Z,19.20
2019-03-19T18:19:18.197Z,19.30
2019-03-19T18:21:44.585Z,19.50
2019-03-19T18:24:10.700Z,19.70
2019-03-19T18:26:36.748Z,19.80
2019-03-19T18:29:03.267Z,19.90
2019-03-19T18:31:29.600Z,20.00
2019-03-19T18:36:22.119Z,20.00
2019-03-19T18:38:48.167Z,20.10
2019-03-19T18:41:14.606Z,20.10
2019-03-19T18:43:40.666Z,20.10
2019-03-19T18:46:07.474Z,20.20
2019-03-19T18:48:33.799Z,20.20
2019-03-19T18:55:53.715Z,20.30
2019-03-19T18:58:19.823Z,20.40
2019-03-19T19:03:12.343Z,20.40
2019-03-19T19:05:38.393Z,20.40
2019-03-19T19:08:04.439Z,20.50
2019-03-19T19:10:30.877Z,20.50
2019-03-19T19:15:25.105Z,20.60
2019-03-19T19:17:51.399Z,20.50
2019-03-19T19:20:18.848Z,20.60
2019-03-19T19:30:14.844Z,20.70
2019-03-19T19:32:41.000Z,20.70
2019-03-19T19:35:07.204Z,20.70
2019-03-19T19:37:33.509Z,20.70
2019-03-19T19:39:59.947Z,20.70
2019-03-19T19:42:25.992Z,20.70
2019-03-19T19:44:52.292Z,20.70
2019-03-19T19:47:18.724Z,20.70
2019-03-19T19:52:11.316Z,20.70
2019-03-19T19:54:37.368Z,20.60
2019-03-19T19:57:03.425Z,20.70
2019-03-19T20:04:22.729Z,20.60
2019-03-19T20:06:49.156Z,20.60
2019-03-19T20:09:15.303Z,20.70
2019-03-19T20:11:41.607Z,20.60
2019-03-19T20:14:07.720Z,20.60
2019-03-19T20:16:33.765Z,20.60
2019-03-19T20:18:59.881Z,20.60
2019-03-19T20:21:25.927Z,20.60
2019-03-19T20:23:51.977Z,20.70
2019-03-19T20:26:18.472Z,20.70
2019-03-19T20:28:44.799Z,20.70
2019-03-19T20:31:10.908Z,20.70
2019-03-19T20:33:37.251Z,20.80
2019-03-19T20:36:03.690Z,20.80
2019-03-19T20:38:29.728Z,20.80
2019-03-19T20:40:55.776Z,20.90
2019-03-19T20:43:21.876Z,20.90
2019-03-19T20:48:14.740Z,21.00
2019-03-19T20:53:07.341Z,21.00
2019-03-19T20:55:33.388Z,21.00
2019-03-19T21:00:26.907Z,21.10
2019-03-19T21:02:52.952Z,21.10
2019-03-19T21:05:19.053Z,21.20
2019-03-19T21:10:23.136Z,21.20
2019-03-19T21:15:18.278Z,21.30
2019-03-19T21:20:12.136Z,21.30
2019-03-19T21:27:32.273Z,21.30
2019-03-19T21:29:58.710Z,21.40
2019-03-19T21:34:51.283Z,21.40
2019-03-19T21:37:17.359Z,21.40
2019-03-19T21:39:44.127Z,21.40
2019-03-19T21:42:10.184Z,21.50
2019-03-19T21:44:36.267Z,21.50
2019-03-19T21:47:02.421Z,21.50
2019-03-19T21:49:28.750Z,21.40
2019-03-19T21:51:54.966Z,21.40
2019-03-19T21:54:21.023Z,21.40
2019-03-19T21:56:47.113Z,21.40
2019-03-19T21:59:13.483Z,21.40
2019-03-19T22:01:39.616Z,21.40
2019-03-19T22:06:32.126Z,21.40
2019-03-19T22:08:58.171Z,21.30
2019-03-19T22:13:51.013Z,21.30
2019-03-19T22:16:17.096Z,21.40
2019-03-19T22:18:43.181Z,21.40
2019-03-19T22:21:09.485Z,21.50
2019-03-19T22:23:35.536Z,21.50
2019-03-19T22:26:01.619Z,21.60
2019-03-19T22:28:27.693Z,21.70
2019-03-19T22:30:53.735Z,21.80
2019-03-19T22:33:23.088Z,21.90
2019-03-19T22:35:48.087Z,21.90
2019-03-19T22:40:40.596Z,22.00
2019-03-19T22:43:06.641Z,22.00
2019-03-19T22:45:32.723Z,22.00
2019-03-19T22:50:25.183Z,22.00
2019-03-19T22:52:51.294Z,22.10
2019-03-19T22:55:28.145Z,22.10
2019-03-19T22:57:45.287Z,22.10
2019-03-19T23:00:37.581Z,22.20
2019-03-19T23:03:06.220Z,22.20
2019-03-19T23:05:32.263Z,22.20
2019-03-19T23:07:58.346Z,22.20
2019-03-19T23:10:25.169Z,22.20
2019-03-19T23:12:51.212Z,22.20
2019-03-19T23:15:17.300Z,22.20
2019-03-19T23:20:11.931Z,22.20
2019-03-19T23:22:38.173Z,22.20
2019-03-19T23:25:06.025Z,22.20
2019-03-19T23:27:32.109Z,22.20
2019-03-19T23:29:58.273Z,22.20
2019-03-19T23:32:24.903Z,22.20
2019-03-19T23:34:51.191Z,22.20
2019-03-19T23:37:17.267Z,22.20
2019-03-19T23:39:43.676Z,22.20
2019-03-19T23:42:10.010Z,22.20
2019-03-19T23:44:36.342Z,22.20
2019-03-19T23:47:02.523Z,22.20
2019-03-19T23:49:28.569Z,22.10
2019-03-19T23:51:54.922Z,22.10
2019-03-19T23:54:21.028Z,22.10
2019-03-19T23:56:47.071Z,22.10
2019-03-19T23:59:13.121Z,22.10
